sensor_id;sensor_type;location;lat;lon;timestamp;pressure;altitude;pressure_sealevel;temperature;humidity
17525;BME280;40431;52.198;9.902;2023-08-01T00:01:35;99068.66;;;17.10;100.00
17525;BME280;40431;52.198;9.902;2023-08-01T00:04:01;99075.00;;;17.11;100.00
17525;BME280;40431;52.198;9.902;2023-08-01T00:06:28;99090.94;;;17.07;100.00
17525;BME280;40431;52.198;9.902;2023-08-01T00:08:54;99084.59;;;17.07;100.00
17525;BME280;40431;52.198;9.902;2023-08-01T00:11:22;99082.72;;;17.07;100.00
17525;BME280;40431;52.198;9.902;2023-08-01T00:13:48;99082.03;;;17.05;100.00
17525;BME280;40431;52.198;9.902;2023-08-01T00:16:15;99072.44;;;17.09;100.00
17525;BME280;40431;52.198;9.902;2023-08-01T00:18:41;99068.31;;;17.13;100.00
17525;BME280;40431;52.198;9.902;2023-08-01T00:21:08;99062.84;;;17.13;100.00
17525;BME280;40431;52.198;9.902;2023-08-01T00:23:36;99056.53;;;17.13;100.00
17525;BME280;40431;52.198;9.902;2023-08-01T00:26:03;99049.84;;;17.15;100.00
17525;BME280;40431;52.198;9.902;2023-08-01T00:28:30;99054.97;;;17.18;100.00
17525;BME280;40431;52.198;9.902;2023-08-01T00:31:04;99051.88;;;17.13;100.00
17525;BME280;40431;52.198;9.902;2023-08-01T00:33:31;99049.16;;;17.13;100.00
17525;BME280;40431;52.198;9.902;2023-08-01T00:35:57;99035.44;;;17.13;100.00
17525;BME280;40431;52.198;9.902;2023-08-01T00:38:23;99027.06;;;17.15;100.00
17525;BME280;40431;52.198;9.902;2023-08-01T00:40:50;99028.25;;;17.12;100.00
17525;BME280;40431;52.198;9.902;2023-08-01T00:43:16;99021.44;;;17.16;100.00
17525;BME280;40431;52.198;9.902;2023-08-01T00:45:44;99012.69;;;17.13;100.00
17525;BME280;40431;52.198;9.902;2023-08-01T00:48:11;99010.63;;;17.15;100.00
17525;BME280;40431;52.198;9.902;2023-08-01T00:50:38;99006.72;;;17.09;100.00
17525;BME280;40431;52.198;9.902;2023-08-01T00:53:05;99013.19;;;17.08;100.00
17525;BME280;40431;52.198;9.902;2023-08-01T00:55:32;99010.81;;;17.05;100.00
17525;BME280;40431;52.198;9.902;2023-08-01T00:57:59;99009.63;;;17.08;100.00
17525;BME280;40431;52.198;9.902;2023-08-01T01:00:25;99000.56;;;17.07;100.00
17525;BME280;40431;52.198;9.902;2023-08-01T01:02:53;99002.59;;;17.05;100.00
17525;BME280;40431;52.198;9.902;2023-08-01T01:05:20;98993.56;;;17.05;100.00
17525;BME280;40431;52.198;9.902;2023-08-01T01:07:49;98985.16;;;17.06;100.00
17525;BME280;40431;52.198;9.902;2023-08-01T01:10:16;98991.66;;;17.05;100.00
17525;BME280;40431;52.198;9.902;2023-08-01T01:12:42;98987.19;;;17.04;100.00
17525;BME280;40431;52.198;9.902;2023-08-01T01:15:09;98980.88;;;17.03;100.00
17525;BME280;40431;52.198;9.902;2023-08-01T01:17:35;98966.66;;;17.08;100.00
17525;BME280;40431;52.198;9.902;2023-08-01T01:20:03;98970.09;;;17.10;100.00
17525;BME280;40431;52.198;9.902;2023-08-01T01:22:32;98950.91;;;17.10;100.00
17525;BME280;40431;52.198;9.902;2023-08-01T01:24:59;98954.81;;;17.16;100.00
17525;BME280;40431;52.198;9.902;2023-08-01T01:27:27;98955.00;;;17.14;100.00
17525;BME280;40431;52.198;9.902;2023-08-01T01:29:55;98955.69;;;17.16;100.00
17525;BME280;40431;52.198;9.902;2023-08-01T01:32:21;98967.00;;;17.13;100.00
17525;BME280;40431;52.198;9.902;2023-08-01T01:34:48;98967.69;;;17.15;100.00
17525;BME280;40431;52.198;9.902;2023-08-01T01:37:14;98955.84;;;17.15;100.00
17525;BME280;40431;52.198;9.902;2023-08-01T01:39:42;98954.31;;;17.12;100.00
17525;BME280;40431;52.198;9.902;2023-08-01T01:42:08;98947.81;;;17.13;100.00
17525;BME280;40431;52.198;9.902;2023-08-01T01:44:35;98945.63;;;17.09;100.00
17525;BME280;40431;52.198;9.902;2023-08-01T01:47:01;98947.84;;;17.05;100.00
17525;BME280;40431;52.198;9.902;2023-08-01T01:49:28;98951.28;;;16.99;100.00
17525;BME280;40431;52.198;9.902;2023-08-01T01:51:55;98943.78;;;16.93;100.00
17525;BME280;40431;52.198;9.902;2023-08-01T01:54:21;98934.50;;;16.85;100.00
17525;BME280;40431;52.198;9.902;2023-08-01T01:56:49;98933.84;;;16.83;100.00
17525;BME280;40431;52.198;9.902;2023-08-01T01:59:15;98929.56;;;16.81;100.00
17525;BME280;40431;52.198;9.902;2023-08-01T02:01:41;98922.19;;;16.81;100.00
17525;BME280;40431;52.198;9.902;2023-08-01T02:04:08;98929.03;;;16.77;100.00
17525;BME280;40431;52.198;9.902;2023-08-01T02:06:34;98923.75;;;16.76;100.00
17525;BME280;40431;52.198;9.902;2023-08-01T02:09:01;98908.88;;;16.78;100.00
17525;BME280;40431;52.198;9.902;2023-08-01T02:11:27;98895.19;;;16.78;100.00
17525;BME280;40431;52.198;9.902;2023-08-01T02:13:55;98890.03;;;16.83;100.00
17525;BME280;40431;52.198;9.902;2023-08-01T02:16:21;98894.97;;;16.88;100.00
17525;BME280;40431;52.198;9.902;2023-08-01T02:18:48;98892.09;;;16.90;100.00
17525;BME280;40431;52.198;9.902;2023-08-01T02:21:14;98881.66;;;16.93;100.00
17525;BME280;40431;52.198;9.902;2023-08-01T02:23:40;98877.00;;;16.94;100.00
17525;BME280;40431;52.198;9.902;2023-08-01T02:26:08;98876.00;;;16.95;100.00
17525;BME280;40431;52.198;9.902;2023-08-01T02:28:34;98872.22;;;16.96;100.00
17525;BME280;40431;52.198;9.902;2023-08-01T02:31:02;98871.22;;;16.97;100.00
17525;BME280;40431;52.198;9.902;2023-08-01T02:33:28;98873.25;;;16.95;100.00
17525;BME280;40431;52.198;9.902;2023-08-01T02:35:55;98878.72;;;16.95;100.00
17525;BME280;40431;52.198;9.902;2023-08-01T02:38:21;98871.53;;;16.94;100.00
17525;BME280;40431;52.198;9.902;2023-08-01T02:40:48;98858.91;;;16.93;100.00
17525;BME280;40431;52.198;9.902;2023-08-01T02:43:14;98852.38;;;16.94;100.00
17525;BME280;40431;52.198;9.902;2023-08-01T02:45:41;98838.69;;;16.94;100.00
17525;BME280;40431;52.198;9.902;2023-08-01T02:48:09;98841.94;;;16.97;100.00
17525;BME280;40431;52.198;9.902;2023-08-01T02:50:35;98843.84;;;16.97;100.00
17525;BME280;40431;52.198;9.902;2023-08-01T02:53:01;98841.09;;;16.97;100.00
17525;BME280;40431;52.198;9.902;2023-08-01T02:55:28;98847.22;;;16.99;100.00
17525;BME280;40431;52.198;9.902;2023-08-01T02:57:54;98843.13;;;16.95;100.00
17525;BME280;40431;52.198;9.902;2023-08-01T03:00:21;98844.84;;;16.96;100.00
17525;BME280;40431;52.198;9.902;2023-08-01T03:02:47;98849.50;;;16.95;100.00
17525;BME280;40431;52.198;9.902;2023-08-01T03:05:15;98847.59;;;16.96;100.00
17525;BME280;40431;52.198;9.902;2023-08-01T03:07:42;98837.34;;;16.90;100.00
17525;BME280;40431;52.198;9.902;2023-08-01T03:10:09;98835.13;;;16.85;100.00
17525;BME280;40431;52.198;9.902;2023-08-01T03:12:36;98840.06;;;16.81;100.00
17525;BME280;40431;52.198;9.902;2023-08-01T03:15:03;98841.28;;;16.79;100.00
17525;BME280;40431;52.198;9.902;2023-08-01T03:17:30;98837.72;;;16.78;100.00
17525;BME280;40431;52.198;9.902;2023-08-01T03:19:56;98831.53;;;16.76;100.00
17525;BME280;40431;52.198;9.902;2023-08-01T03:22:24;98824.03;;;16.78;100.00
17525;BME280;40431;52.198;9.902;2023-08-01T03:24:50;98822.31;;;16.77;100.00
17525;BME280;40431;52.198;9.902;2023-08-01T03:27:17;98815.13;;;16.76;100.00
17525;BME280;40431;52.198;9.902;2023-08-01T03:29:43;98818.53;;;16.78;100.00
17525;BME280;40431;52.198;9.902;2023-08-01T03:32:10;98813.72;;;16.80;100.00
17525;BME280;40431;52.198;9.902;2023-08-01T03:34:36;98811.50;;;16.84;100.00
17525;BME280;40431;52.198;9.902;2023-08-01T03:37:04;98813.03;;;16.86;100.00
17525;BME280;40431;52.198;9.902;2023-08-01T03:39:32;98824.34;;;16.92;100.00
17525;BME280;40431;52.198;9.902;2023-08-01T03:41:58;98831.19;;;16.88;100.00
17525;BME280;40431;52.198;9.902;2023-08-01T03:44:24;98819.91;;;16.82;100.00
17525;BME280;40431;52.198;9.902;2023-08-01T03:46:51;98803.66;;;16.81;100.00
17525;BME280;40431;52.198;9.902;2023-08-01T03:49:17;98801.25;;;16.78;100.00
17525;BME280;40431;52.198;9.902;2023-08-01T03:51:44;98801.25;;;16.78;100.00
17525;BME280;40431;52.198;9.902;2023-08-01T03:54:10;98804.16;;;16.76;100.00
17525;BME280;40431;52.198;9.902;2023-08-01T03:56:38;98797.00;;;16.75;100.00
17525;BME280;40431;52.198;9.902;2023-08-01T03:59:08;98801.44;;;16.76;100.00
17525;BME280;40431;52.198;9.902;2023-08-01T04:01:34;98796.28;;;16.81;100.00
17525;BME280;40431;52.198;9.902;2023-08-01T04:04:00;98796.28;;;16.81;100.00
17525;BME280;40431;52.198;9.902;2023-08-01T04:06:27;98804.16;;;16.76;100.00
17525;BME280;40431;52.198;9.902;2023-08-01T04:08:53;98795.97;;;16.76;100.00
17525;BME280;40431;52.198;9.902;2023-08-01T04:11:21;98800.03;;;16.80;100.00
17525;BME280;40431;52.198;9.902;2023-08-01T04:13:49;98804.50;;;16.81;100.00
17525;BME280;40431;52.198;9.902;2023-08-01T04:16:15;98802.63;;;16.82;100.00
17525;BME280;40431;52.198;9.902;2023-08-01T04:18:42;98805.84;;;16.85;100.00
17525;BME280;40431;52.198;9.902;2023-08-01T04:21:08;98793.69;;;16.88;100.00
17525;BME280;40431;52.198;9.902;2023-08-01T04:23:35;98795.41;;;16.89;100.00
17525;BME280;40431;52.198;9.902;2023-08-01T04:26:01;98789.59;;;16.84;100.00
17525;BME280;40431;52.198;9.902;2023-08-01T04:28:31;98791.31;;;16.85;100.00
17525;BME280;40431;52.198;9.902;2023-08-01T04:30:58;98784.13;;;16.84;100.00
17525;BME280;40431;52.198;9.902;2023-08-01T04:33:25;98793.88;;;16.86;100.00
17525;BME280;40431;52.198;9.902;2023-08-01T04:35:51;98779.50;;;16.84;100.00
17525;BME280;40431;52.198;9.902;2023-08-01T04:38:18;98777.81;;;16.83;100.00
17525;BME280;40431;52.198;9.902;2023-08-01T04:40:44;98788.75;;;16.83;100.00
17525;BME280;40431;52.198;9.902;2023-08-01T04:43:11;98791.53;;;16.75;100.00
17525;BME280;40431;52.198;9.902;2023-08-01T04:45:38;98787.28;;;16.73;100.00
17525;BME280;40431;52.198;9.902;2023-08-01T04:48:06;98786.41;;;16.72;100.00
17525;BME280;40431;52.198;9.902;2023-08-01T04:50:32;98781.94;;;16.71;100.00
17525;BME280;40431;52.198;9.902;2023-08-01T04:52:58;98783.00;;;16.70;100.00
17525;BME280;40431;52.198;9.902;2023-08-01T04:55:25;98789.88;;;16.66;100.00
17525;BME280;40431;52.198;9.902;2023-08-01T04:57:51;98793.81;;;16.63;100.00
17525;BME280;40431;52.198;9.902;2023-08-01T05:00:17;98795.34;;;16.58;100.00
17525;BME280;40431;52.198;9.902;2023-08-01T05:02:44;98794.50;;;16.57;100.00
17525;BME280;40431;52.198;9.902;2023-08-01T05:05:11;98796.91;;;16.52;100.00
17525;BME280;40431;52.198;9.902;2023-08-01T05:07:38;98802.72;;;16.49;100.00
17525;BME280;40431;52.198;9.902;2023-08-01T05:10:05;98805.28;;;16.50;100.00
17525;BME280;40431;52.198;9.902;2023-08-01T05:12:31;98812.13;;;16.55;100.00
17525;BME280;40431;52.198;9.902;2023-08-01T05:14:58;98810.75;;;16.50;100.00
17525;BME280;40431;52.198;9.902;2023-08-01T05:17:24;98809.03;;;16.49;100.00
17525;BME280;40431;52.198;9.902;2023-08-01T05:19:50;98805.97;;;16.44;100.00
17525;BME280;40431;52.198;9.902;2023-08-01T05:22:18;98808.38;;;16.39;100.00
17525;BME280;40431;52.198;9.902;2023-08-01T05:24:45;98806.69;;;16.38;100.00
17525;BME280;40431;52.198;9.902;2023-08-01T05:27:11;98805.16;;;16.35;100.00
17525;BME280;40431;52.198;9.902;2023-08-01T05:29:37;98824.13;;;16.37;100.00
17525;BME280;40431;52.198;9.902;2023-08-01T05:32:04;98812.50;;;16.35;100.00
17525;BME280;40431;52.198;9.902;2023-08-01T05:34:30;98825.81;;;16.30;100.00
17525;BME280;40431;52.198;9.902;2023-08-01T05:36:57;98825.66;;;16.23;100.00
17525;BME280;40431;52.198;9.902;2023-08-01T05:39:24;98831.66;;;16.27;100.00
17525;BME280;40431;52.198;9.902;2023-08-01T05:41:51;98834.22;;;16.28;100.00
17525;BME280;40431;52.198;9.902;2023-08-01T05:44:17;98835.41;;;16.26;100.00
17525;BME280;40431;52.198;9.902;2023-08-01T05:46:44;98836.09;;;16.28;100.00
17525;BME280;40431;52.198;9.902;2023-08-01T05:49:10;98829.63;;;16.29;100.00
17525;BME280;40431;52.198;9.902;2023-08-01T05:51:37;98826.34;;;16.33;100.00
17525;BME280;40431;52.198;9.902;2023-08-01T05:54:03;98835.25;;;16.35;100.00
17525;BME280;40431;52.198;9.902;2023-08-01T05:56:31;98837.44;;;16.40;100.00
17525;BME280;40431;52.198;9.902;2023-08-01T05:58:57;98837.44;;;16.40;100.00
17525;BME280;40431;52.198;9.902;2023-08-01T06:01:24;98831.97;;;16.40;100.00
17525;BME280;40431;52.198;9.902;2023-08-01T06:03:50;98839.34;;;16.40;100.00
17525;BME280;40431;52.198;9.902;2023-08-01T06:06:17;98825.84;;;16.38;100.00
17525;BME280;40431;52.198;9.902;2023-08-01T06:08:43;98826.34;;;16.33;100.00
17525;BME280;40431;52.198;9.902;2023-08-01T06:11:10;98832.34;;;16.37;100.00
17525;BME280;40431;52.198;9.902;2023-08-01T06:13:38;98830.94;;;16.41;100.00
17525;BME280;40431;52.198;9.902;2023-08-01T06:16:04;98837.44;;;16.40;100.00
17525;BME280;40431;52.198;9.902;2023-08-01T06:18:30;98826.50;;;16.40;100.00
17525;BME280;40431;52.198;9.902;2023-08-01T06:20:57;98831.63;;;16.35;100.00
17525;BME280;40431;52.198;9.902;2023-08-01T06:23:23;98839.19;;;16.33;100.00
17525;BME280;40431;52.198;9.902;2023-08-01T06:25:50;98827.19;;;16.34;100.00
17525;BME280;40431;52.198;9.902;2023-08-01T06:28:16;98819.31;;;16.39;100.00
17525;BME280;40431;52.198;9.902;2023-08-01T06:30:45;98824.09;;;16.45;100.00
17525;BME280;40431;52.198;9.902;2023-08-01T06:33:11;98830.41;;;16.46;100.00
17525;BME280;40431;52.198;9.902;2023-08-01T06:35:37;98830.94;;;16.49;100.00
17525;BME280;40431;52.198;9.902;2023-08-01T06:38:04;98836.94;;;16.45;100.00
17525;BME280;40431;52.198;9.902;2023-08-01T06:40:30;98835.03;;;16.45;100.00
17525;BME280;40431;52.198;9.902;2023-08-01T06:42:56;98842.06;;;16.40;100.00
17525;BME280;40431;52.198;9.902;2023-08-01T06:45:23;98847.19;;;16.43;100.00
17525;BME280;40431;52.198;9.902;2023-08-01T06:47:50;98850.44;;;16.46;100.00
17525;BME280;40431;52.198;9.902;2023-08-01T06:50:17;98847.69;;;16.46;100.00
17525;BME280;40431;52.198;9.902;2023-08-01T06:52:43;98848.69;;;16.53;100.00
17525;BME280;40431;52.198;9.902;2023-08-01T06:55:10;98855.22;;;16.44;100.00
17525;BME280;40431;52.198;9.902;2023-08-01T06:57:36;98865.13;;;16.45;100.00
17525;BME280;40431;52.198;9.902;2023-08-01T07:00:03;98855.22;;;16.44;100.00
17525;BME280;40431;52.198;9.902;2023-08-01T07:02:30;98859.69;;;16.37;100.00
17525;BME280;40431;52.198;9.902;2023-08-01T07:04:58;98868.22;;;16.42;100.00
17525;BME280;40431;52.198;9.902;2023-08-01T07:07:24;98869.09;;;16.34;100.00
17525;BME280;40431;52.198;9.902;2023-08-01T07:09:50;98866.69;;;16.31;100.00
17525;BME280;40431;52.198;9.902;2023-08-01T07:12:17;98868.91;;;16.28;100.00
17525;BME280;40431;52.198;9.902;2023-08-01T07:14:43;98876.78;;;16.23;100.00
17525;BME280;40431;52.198;9.902;2023-08-01T07:17:09;98878.13;;;16.27;100.00
17525;BME280;40431;52.198;9.902;2023-08-01T07:19:36;98880.03;;;16.26;100.00
17525;BME280;40431;52.198;9.902;2023-08-01T07:22:04;98877.31;;;16.26;100.00
17525;BME280;40431;52.198;9.902;2023-08-01T07:24:30;98875.56;;;16.33;100.00
17525;BME280;40431;52.198;9.902;2023-08-01T07:26:56;98880.88;;;16.27;100.00
17525;BME280;40431;52.198;9.902;2023-08-01T07:29:23;98886.50;;;16.33;100.00
17525;BME280;40431;52.198;9.902;2023-08-01T07:31:49;98882.94;;;16.33;100.00
17525;BME280;40431;52.198;9.902;2023-08-01T07:34:16;98882.41;;;16.38;100.00
17525;BME280;40431;52.198;9.902;2023-08-01T07:36:42;98898.97;;;16.44;100.00
17525;BME280;40431;52.198;9.902;2023-08-01T07:39:10;98888.41;;;16.41;100.00
17525;BME280;40431;52.198;9.902;2023-08-01T07:41:36;98902.06;;;16.41;100.00
17525;BME280;40431;52.198;9.902;2023-08-01T07:44:03;98897.97;;;16.45;100.00
17525;BME280;40431;52.198;9.902;2023-08-01T07:46:29;98899.16;;;16.51;100.00
17525;BME280;40431;52.198;9.902;2023-08-01T07:48:55;98910.25;;;16.49;100.00
17525;BME280;40431;52.198;9.902;2023-08-01T07:51:22;98910.25;;;16.58;100.00
17525;BME280;40431;52.198;9.902;2023-08-01T07:53:50;98918.28;;;16.59;100.00
17525;BME280;40431;52.198;9.902;2023-08-01T07:56:18;98908.56;;;16.65;100.00
17525;BME280;40431;52.198;9.902;2023-08-01T07:58:45;98914.69;;;16.67;100.00
17525;BME280;40431;52.198;9.902;2023-08-01T08:01:11;98902.06;;;16.66;100.00
17525;BME280;40431;52.198;9.902;2023-08-01T08:03:37;98916.03;;;16.71;100.00
17525;BME280;40431;52.198;9.902;2023-08-01T08:06:04;98911.63;;;16.70;100.00
17525;BME280;40431;52.198;9.902;2023-08-01T08:08:30;98914.38;;;16.70;100.00
17525;BME280;40431;52.198;9.902;2023-08-01T08:10:58;98906.13;;;16.78;100.00
17525;BME280;40431;52.198;9.902;2023-08-01T08:13:27;98910.41;;;16.81;100.00
17525;BME280;40431;52.198;9.902;2023-08-01T08:15:55;98915.34;;;16.85;100.00
17525;BME280;40431;52.198;9.902;2023-08-01T08:18:21;98909.88;;;16.94;100.00
17525;BME280;40431;52.198;9.902;2023-08-01T08:20:48;98911.41;;;17.05;100.00
17525;BME280;40431;52.198;9.902;2023-08-01T08:23:14;98912.91;;;17.15;100.00
17525;BME280;40431;52.198;9.902;2023-08-01T08:25:41;98911.47;;;17.28;100.00
17525;BME280;40431;52.198;9.902;2023-08-01T08:28:11;98907.69;;;17.37;100.00
17525;BME280;40431;52.198;9.902;2023-08-01T08:30:39;98908.97;;;17.49;100.00
17525;BME280;40431;52.198;9.902;2023-08-01T08:33:05;98902.78;;;17.56;100.00
17525;BME280;40431;52.198;9.902;2023-08-01T08:35:32;98895.22;;;17.66;100.00
17525;BME280;40431;52.198;9.902;2023-08-01T08:38:01;98898.25;;;17.71;100.00
17525;BME280;40431;52.198;9.902;2023-08-01T08:40:28;98882.09;;;17.76;100.00
17525;BME280;40431;52.198;9.902;2023-08-01T08:42:56;98902.28;;;17.83;100.00
17525;BME280;40431;52.198;9.902;2023-08-01T08:45:24;98894.00;;;17.92;100.00
17525;BME280;40431;52.198;9.902;2023-08-01T08:47:55;98907.66;;;18.08;100.00
17525;BME280;40431;52.198;9.902;2023-08-01T08:50:22;98896.97;;;18.13;100.00
17525;BME280;40431;52.198;9.902;2023-08-01T08:52:50;98906.00;;;18.22;100.00
17525;BME280;40431;52.198;9.902;2023-08-01T08:55:17;98899.22;;;18.33;100.00
17525;BME280;40431;52.198;9.902;2023-08-01T08:57:46;98895.25;;;18.35;100.00
17525;BME280;40431;52.198;9.902;2023-08-01T09:00:16;98895.81;;;18.31;100.00
17525;BME280;40431;52.198;9.902;2023-08-01T09:02:43;98889.78;;;18.50;100.00
17525;BME280;40431;52.198;9.902;2023-08-01T09:05:11;98893.72;;;18.71;100.00
17525;BME280;40431;52.198;9.902;2023-08-01T09:07:42;98870.72;;;18.72;100.00
17525;BME280;40431;52.198;9.902;2023-08-01T09:10:08;98869.59;;;18.81;100.00
17525;BME280;40431;52.198;9.902;2023-08-01T09:12:35;98879.22;;;18.77;100.00
17525;BME280;40431;52.198;9.902;2023-08-01T09:15:01;98889.06;;;18.72;100.00
17525;BME280;40431;52.198;9.902;2023-08-01T09:17:28;98884.25;;;18.59;100.00
17525;BME280;40431;52.198;9.902;2023-08-01T09:19:55;98898.78;;;18.44;100.00
17525;BME280;40431;52.198;9.902;2023-08-01T09:22:24;98896.03;;;18.44;100.00
17525;BME280;40431;52.198;9.902;2023-08-01T09:24:51;98893.88;;;18.55;100.00
17525;BME280;40431;52.198;9.902;2023-08-01T09:27:20;98883.38;;;18.58;100.00
17525;BME280;40431;52.198;9.902;2023-08-01T09:29:47;98882.06;;;18.69;100.00
17525;BME280;40431;52.198;9.902;2023-08-01T09:32:14;98888.53;;;18.76;100.00
17525;BME280;40431;52.198;9.902;2023-08-01T09:34:41;98884.19;;;18.97;100.00
17525;BME280;40431;52.198;9.902;2023-08-01T09:37:08;98870.66;;;19.10;100.00
17525;BME280;40431;52.198;9.902;2023-08-01T09:39:36;98872.34;;;19.26;100.00
17525;BME280;40431;52.198;9.902;2023-08-01T09:42:03;98880.94;;;19.38;100.00
17525;BME280;40431;52.198;9.902;2023-08-01T09:44:30;98868.31;;;19.44;100.00
17525;BME280;40431;52.198;9.902;2023-08-01T09:46:57;98874.19;;;19.56;100.00
17525;BME280;40431;52.198;9.902;2023-08-01T09:49:24;98872.47;;;19.69;100.00
17525;BME280;40431;52.198;9.902;2023-08-01T09:51:50;98881.78;;;19.90;100.00
17525;BME280;40431;52.198;9.902;2023-08-01T09:54:17;98867.28;;;19.96;100.00
17525;BME280;40431;52.198;9.902;2023-08-01T09:56:47;98874.94;;;20.01;100.00
17525;BME280;40431;52.198;9.902;2023-08-01T09:59:18;98882.06;;;19.95;100.00
17525;BME280;40431;52.198;9.902;2023-08-01T10:01:47;98879.50;;;19.94;98.95
17525;BME280;40431;52.198;9.902;2023-08-01T10:04:15;98886.31;;;19.98;100.00
17525;BME280;40431;52.198;9.902;2023-08-01T10:06:46;98890.91;;;20.12;99.59
17525;BME280;40431;52.198;9.902;2023-08-01T10:09:16;98889.88;;;20.13;92.59
17525;BME280;40431;52.198;9.902;2023-08-01T10:11:43;98884.91;;;20.24;98.35
17525;BME280;40431;52.198;9.902;2023-08-01T10:14:12;98892.09;;;20.25;93.08
17525;BME280;40431;52.198;9.902;2023-08-01T10:16:39;98899.63;;;20.16;95.90
17525;BME280;40431;52.198;9.902;2023-08-01T10:19:08;98906.66;;;20.18;96.94
17525;BME280;40431;52.198;9.902;2023-08-01T10:21:37;98891.66;;;20.21;97.20
17525;BME280;40431;52.198;9.902;2023-08-01T10:24:05;98894.31;;;20.36;96.80
17525;BME280;40431;52.198;9.902;2023-08-01T10:26:32;98899.41;;;20.39;94.51
17525;BME280;40431;52.198;9.902;2023-08-01T10:29:00;98896.81;;;20.31;93.53
17525;BME280;40431;52.198;9.902;2023-08-01T10:31:29;98901.66;;;20.29;90.97
17525;BME280;40431;52.198;9.902;2023-08-01T10:34:04;98893.53;;;20.42;93.66
17525;BME280;40431;52.198;9.902;2023-08-01T10:36:31;98899.81;;;20.36;88.67
17525;BME280;40431;52.198;9.902;2023-08-01T10:39:00;98899.34;;;20.32;92.65
17525;BME280;40431;52.198;9.902;2023-08-01T10:41:28;98897.22;;;20.28;89.61
17525;BME280;40431;52.198;9.902;2023-08-01T10:44:06;98902.44;;;20.44;90.04
17525;BME280;40431;52.198;9.902;2023-08-01T10:46:47;98904.13;;;20.45;90.70
17525;BME280;40431;52.198;9.902;2023-08-01T10:49:14;98896.94;;;20.44;89.11
17525;BME280;40431;52.198;9.902;2023-08-01T10:51:41;98901.91;;;20.56;90.36
17525;BME280;40431;52.198;9.902;2023-08-01T10:54:18;98890.34;;;20.67;86.69
17525;BME280;40431;52.198;9.902;2023-08-01T10:56:46;98890.53;;;20.65;87.86
17525;BME280;40431;52.198;9.902;2023-08-01T10:59:13;98886.34;;;20.69;85.06
17525;BME280;40431;52.198;9.902;2023-08-01T11:01:43;98882.34;;;20.72;83.18
17525;BME280;40431;52.198;9.902;2023-08-01T11:04:15;98881.41;;;20.87;82.68
17525;BME280;40431;52.198;9.902;2023-08-01T11:06:46;98892.59;;;20.78;82.05
17525;BME280;40431;52.198;9.902;2023-08-01T11:09:17;98896.19;;;20.79;84.69
17525;BME280;40431;52.198;9.902;2023-08-01T11:11:45;98896.00;;;20.87;82.66
17525;BME280;40431;52.198;9.902;2023-08-01T11:14:12;98893.09;;;20.95;80.00
17525;BME280;40431;52.198;9.902;2023-08-01T11:16:39;98880.44;;;21.01;80.33
17525;BME280;40431;52.198;9.902;2023-08-01T11:19:06;98878.97;;;21.05;82.34
17525;BME280;40431;52.198;9.902;2023-08-01T11:21:34;98880.28;;;21.09;80.50
17525;BME280;40431;52.198;9.902;2023-08-01T11:24:06;98891.94;;;21.11;82.58
17525;BME280;40431;52.198;9.902;2023-08-01T11:26:33;98892.59;;;21.13;81.71
17525;BME280;40431;52.198;9.902;2023-08-01T11:29:01;98895.63;;;21.25;84.15
17525;BME280;40431;52.198;9.902;2023-08-01T11:31:28;98905.44;;;21.34;84.94
17525;BME280;40431;52.198;9.902;2023-08-01T11:33:56;98900.50;;;21.30;80.41
17525;BME280;40431;52.198;9.902;2023-08-01T11:36:25;98899.22;;;21.26;80.49
17525;BME280;40431;52.198;9.902;2023-08-01T11:38:54;98898.81;;;21.29;81.03
17525;BME280;40431;52.198;9.902;2023-08-01T11:41:22;98905.63;;;21.33;78.92
17525;BME280;40431;52.198;9.902;2023-08-01T11:43:49;98922.91;;;21.13;77.75
17525;BME280;40431;52.198;9.902;2023-08-01T11:46:16;98916.41;;;20.93;80.37
17525;BME280;40431;52.198;9.902;2023-08-01T11:48:44;98926.94;;;20.82;80.82
17525;BME280;40431;52.198;9.902;2023-08-01T11:51:11;98925.63;;;20.78;84.11
17525;BME280;40431;52.198;9.902;2023-08-01T11:53:38;98924.56;;;20.58;83.45
17525;BME280;40431;52.198;9.902;2023-08-01T11:56:06;98926.84;;;20.54;82.48
17525;BME280;40431;52.198;9.902;2023-08-01T11:58:34;98926.28;;;20.59;84.30
17525;BME280;40431;52.198;9.902;2023-08-01T12:01:05;98936.50;;;20.43;82.38
17525;BME280;40431;52.198;9.902;2023-08-01T12:03:32;98945.88;;;20.27;81.21
17525;BME280;40431;52.198;9.902;2023-08-01T12:06:05;98942.94;;;20.07;83.16
17525;BME280;40431;52.198;9.902;2023-08-01T12:08:33;98944.16;;;20.05;83.46
17525;BME280;40431;52.198;9.902;2023-08-01T12:11:00;98943.81;;;19.93;84.11
17525;BME280;40431;52.198;9.902;2023-08-01T12:13:29;98944.78;;;19.70;85.73
17525;BME280;40431;52.198;9.902;2023-08-01T12:15:56;98957.88;;;19.68;88.98
17525;BME280;40431;52.198;9.902;2023-08-01T12:18:24;98954.69;;;19.49;91.41
17525;BME280;40431;52.198;9.902;2023-08-01T12:20:51;98953.53;;;19.29;94.08
17525;BME280;40431;52.198;9.902;2023-08-01T12:23:17;98943.03;;;19.32;96.37
17525;BME280;40431;52.198;9.902;2023-08-01T12:25:44;98935.81;;;19.31;96.97
17525;BME280;40431;52.198;9.902;2023-08-01T12:28:11;98949.38;;;19.33;97.71
17525;BME280;40431;52.198;9.902;2023-08-01T12:30:40;98938.94;;;19.43;99.09
17525;BME280;40431;52.198;9.902;2023-08-01T12:33:07;98937.59;;;19.54;96.94
17525;BME280;40431;52.198;9.902;2023-08-01T12:35:34;98934.94;;;19.76;96.27
17525;BME280;40431;52.198;9.902;2023-08-01T12:38:00;98938.22;;;20.01;94.73
17525;BME280;40431;52.198;9.902;2023-08-01T12:40:26;98952.19;;;20.21;93.45
17525;BME280;40431;52.198;9.902;2023-08-01T12:42:53;98962.06;;;20.59;94.07
17525;BME280;40431;52.198;9.902;2023-08-01T12:45:19;98974.41;;;20.84;89.70
17525;BME280;40431;52.198;9.902;2023-08-01T12:47:48;98973.56;;;20.84;88.06
17525;BME280;40431;52.198;9.902;2023-08-01T12:50:15;98984.44;;;20.49;86.49
17525;BME280;40431;52.198;9.902;2023-08-01T12:52:41;98980.00;;;20.11;87.49